Time;durP1;ratioP1;P1;durP2;ratioP2;P2;SDS_P1;SDS_P2;PMS_P1;PMS_P2;Temp;Humidity;BMP_temperature;BMP_pressure;BME280_temperature;BME280_humidity;BME280_pressure;Samples;Min_cycle;Max_cycle;Signal;HPM_P1;HPM_P2
2022/06/14 00:00:54;;;;;;;;;;;27.50;36.40;;;;;;4112459;28;20027;-54
2022/06/14 00:02:55;;;;;;;;;;;27.50;36.30;;;;;;4108212;28;20020;-52
2022/06/14 00:04:57;;;;;;;;;;;27.60;36.20;;;;;;4110830;28;19928;-53
2022/06/14 00:06:59;;;;;;;;;;;27.70;36.10;;;;;;4112805;28;20356;-55
2022/06/14 00:09:01;;;;;;;;;;;27.90;36.00;;;;;;4109631;28;20415;-54
2022/06/14 00:11:09;;;;;;;;;;;28.00;35.90;;;;;;4120352;28;19929;-55
2022/06/14 00:13:11;;;;;;;;;;;28.10;35.80;;;;;;4129348;28;19921;-54
2022/06/14 00:15:12;;;;;;;;;;;28.20;35.80;;;;;;4129860;28;19952;-55
2022/06/14 00:17:14;;;;;;;;;;;28.20;35.70;;;;;;4126209;28;20053;-49
2022/06/14 00:19:16;;;;;;;;;;;27.90;35.70;;;;;;4132291;28;20083;-53
2022/06/14 00:21:18;;;;;;;;;;;27.50;36.00;;;;;;4134241;28;20029;-52
2022/06/14 00:23:21;;;;;;;;;;;27.20;36.60;;;;;;4128058;28;19931;-54
2022/06/14 00:25:28;;;;;;;;;;;26.90;37.80;;;;;;4116347;28;20027;-46
2022/06/14 00:27:30;;;;;;;;;;;26.50;37.60;;;;;;4122569;28;19929;-47
2022/06/14 00:29:31;;;;;;;;;;;26.10;37.70;;;;;;4120187;28;20283;-46
2022/06/14 00:31:34;;;;;;;;;;;25.70;37.40;;;;;;4113120;28;19951;-44
2022/06/14 00:33:35;;;;;;;;;;;25.30;37.80;;;;;;4118015;28;20015;-49
2022/06/14 00:35:37;;;;;;;;;;;24.90;38.00;;;;;;4114005;28;20607;-53
2022/06/14 00:37:39;;;;;;;;;;;24.60;38.60;;;;;;4108256;28;19979;-46
2022/06/14 00:39:40;;;;;;;;;;;24.20;38.70;;;;;;4110228;28;20522;-54
2022/06/14 00:41:43;;;;;;;;;;;23.90;38.80;;;;;;4116841;28;20002;-47
2022/06/14 00:43:45;;;;;;;;;;;23.70;39.20;;;;;;4109511;28;19940;-47
2022/06/14 00:45:48;;;;;;;;;;;23.40;39.40;;;;;;4106393;28;19924;-51
2022/06/14 00:47:49;;;;;;;;;;;23.20;39.90;;;;;;4113344;28;20043;-47
2022/06/14 00:49:53;;;;;;;;;;;22.90;40.00;;;;;;4109007;28;20505;-52
2022/06/14 00:52:01;;;;;;;;;;;22.70;40.20;;;;;;4108769;28;19935;-55
2022/06/14 00:54:02;;;;;;;;;;;22.60;40.60;;;;;;4108918;28;19929;-51
2022/06/14 00:56:15;;;;;;;;;;;22.50;40.80;;;;;;4115994;28;19932;-49
2022/06/14 00:58:19;;;;;;;;;;;22.40;41.00;;;;;;4117924;28;20379;-53
2022/06/14 01:00:24;;;;;;;;;;;22.30;41.30;;;;;;4112200;28;20562;-50
2022/06/14 01:02:29;;;;;;;;;;;22.20;41.50;;;;;;4109080;28;19925;-50
2022/06/14 01:04:32;;;;;;;;;;;22.20;41.80;;;;;;4108454;28;19932;-49
2022/06/14 01:06:49;;;;;;;;;;;22.10;42.10;;;;;;4117166;28;20012;-46
2022/06/14 01:09:04;;;;;;;;;;;22.00;42.30;;;;;;4111207;28;19929;-50
2022/06/14 01:11:07;;;;;;;;;;;21.90;42.50;;;;;;4107942;28;19937;-49
2022/06/14 01:13:08;;;;;;;;;;;21.80;42.60;;;;;;4116873;28;20524;-47
2022/06/14 01:15:19;;;;;;;;;;;21.70;42.80;;;;;;4123620;28;20438;-47
2022/06/14 01:17:21;;;;;;;;;;;21.60;42.90;;;;;;4103836;28;20393;-51
2022/06/14 01:19:25;;;;;;;;;;;21.60;43.10;;;;;;4108423;28;20024;-52
2022/06/14 01:21:28;;;;;;;;;;;21.50;43.20;;;;;;4116902;28;20311;-53
2022/06/14 01:23:30;;;;;;;;;;;21.40;43.40;;;;;;4112885;28;21222;-50
2022/06/14 01:25:34;;;;;;;;;;;21.30;43.50;;;;;;4106464;28;20347;-46
2022/06/14 01:27:37;;;;;;;;;;;21.30;43.70;;;;;;4108401;28;20033;-48
2022/06/14 01:29:40;;;;;;;;;;;21.20;43.90;;;;;;4117895;28;19929;-54
2022/06/14 01:31:42;;;;;;;;;;;21.10;43.90;;;;;;4109023;28;19933;-49
2022/06/14 01:33:46;;;;;;;;;;;21.10;44.10;;;;;;4108867;28;19952;-51
2022/06/14 01:35:50;;;;;;;;;;;21.00;44.90;;;;;;4111091;28;19925;-46
2022/06/14 01:37:53;;;;;;;;;;;21.00;44.50;;;;;;4115190;28;20052;-47
2022/06/14 01:39:55;;;;;;;;;;;20.90;44.60;;;;;;4109701;28;20005;-49
2022/06/14 01:42:00;;;;;;;;;;;20.80;44.60;;;;;;4108321;28;19931;-47
2022/06/14 01:44:04;;;;;;;;;;;20.80;44.80;;;;;;4115861;28;20307;-50
2022/06/14 01:46:08;;;;;;;;;;;20.70;45.00;;;;;;4114663;28;20017;-49
2022/06/14 01:48:10;;;;;;;;;;;20.60;45.00;;;;;;4108803;28;19929;-50
2022/06/14 01:53:03;;;;;;;;;;;20.50;45.20;;;;;;4115752;28;20023;-49
2022/06/14 01:55:08;;;;;;;;;;;20.50;45.50;;;;;;4113385;28;20497;-47
2022/06/14 01:57:10;;;;;;;;;;;20.40;45.50;;;;;;4115795;28;19929;-52
2022/06/14 01:59:20;;;;;;;;;;;20.40;45.60;;;;;;4105551;28;19925;-47
2022/06/14 02:01:31;;;;;;;;;;;20.40;46.40;;;;;;4108517;28;19929;-48
2022/06/14 02:06:25;;;;;;;;;;;20.30;46.00;;;;;;4108356;28;19933;-46
2022/06/14 02:08:29;;;;;;;;;;;20.20;46.00;;;;;;4106995;28;19931;-46
2022/06/14 02:10:39;;;;;;;;;;;20.20;46.20;;;;;;4112206;28;20020;-50
2022/06/14 02:12:58;;;;;;;;;;;20.10;46.30;;;;;;4115410;28;20043;-49
2022/06/14 02:15:02;;;;;;;;;;;20.10;46.50;;;;;;4107352;28;19991;-50
2022/06/14 02:17:23;;;;;;;;;;;20.00;46.50;;;;;;4113210;28;20753;-51
2022/06/14 02:19:30;;;;;;;;;;;20.00;46.90;;;;;;4107075;28;19972;-49
2022/06/14 02:21:33;;;;;;;;;;;19.90;46.70;;;;;;4111978;28;19936;-52
2022/06/14 02:23:41;;;;;;;;;;;19.90;46.60;;;;;;4116117;28;19928;-49
2022/06/14 02:25:58;;;;;;;;;;;19.80;46.60;;;;;;4108291;28;20058;-54
2022/06/14 02:28:19;;;;;;;;;;;19.80;46.60;;;;;;4117610;28;19933;-52
2022/06/14 02:30:26;;;;;;;;;;;19.70;46.60;;;;;;4111406;28;19928;-49
2022/06/14 02:32:37;;;;;;;;;;;19.70;46.60;;;;;;4115755;28;20678;-53
2022/06/14 02:34:44;;;;;;;;;;;19.60;46.70;;;;;;4115651;28;19929;-48
2022/06/14 02:36:51;;;;;;;;;;;19.50;46.70;;;;;;4113566;28;20380;-50
2022/06/14 02:38:56;;;;;;;;;;;19.50;46.70;;;;;;4107647;28;20824;-50
2022/06/14 02:41:04;;;;;;;;;;;19.50;46.70;;;;;;4108027;28;20268;-47
2022/06/14 02:43:18;;;;;;;;;;;19.40;46.90;;;;;;4109312;28;19971;-51
2022/06/14 02:45:22;;;;;;;;;;;19.40;47.00;;;;;;4109693;28;20380;-50
2022/06/14 02:47:28;;;;;;;;;;;19.30;47.10;;;;;;4111164;28;20954;-51
2022/06/14 02:49:59;;;;;;;;;;;19.30;47.10;;;;;;4114170;28;19933;-52
2022/06/14 02:52:04;;;;;;;;;;;19.30;47.10;;;;;;4091528;28;20363;-46
2022/06/14 02:54:29;;;;;;;;;;;19.30;47.40;;;;;;4106829;28;19928;-45
2022/06/14 02:56:35;;;;;;;;;;;19.60;47.20;;;;;;4099257;28;20898;-45
2022/06/14 02:58:59;;;;;;;;;;;20.10;46.40;;;;;;4108636;28;19929;-45
2022/06/14 03:01:11;;;;;;;;;;;20.60;45.70;;;;;;4108078;28;19937;-46
2022/06/14 03:03:12;;;;;;;;;;;21.20;44.90;;;;;;4118570;28;20437;-47
2022/06/14 03:05:35;;;;;;;;;;;21.60;44.30;;;;;;4108337;28;19928;-45
2022/06/14 03:07:44;;;;;;;;;;;22.00;43.80;;;;;;4115345;28;20046;-42
2022/06/14 03:09:47;;;;;;;;;;;22.40;43.30;;;;;;4110007;28;20531;-42
2022/06/14 03:12:01;;;;;;;;;;;22.70;42.90;;;;;;4110200;28;19929;-44
2022/06/14 03:14:20;;;;;;;;;;;23.00;42.50;;;;;;4108796;28;19936;-47
2022/06/14 03:16:28;;;;;;;;;;;23.30;42.20;;;;;;4114701;28;20278;-45
2022/06/14 03:18:49;;;;;;;;;;;23.60;41.90;;;;;;4112912;28;19951;-48
2022/06/14 03:21:09;;;;;;;;;;;23.80;41.50;;;;;;4118553;28;19929;-51
2022/06/14 03:23:14;;;;;;;;;;;24.20;41.30;;;;;;4115324;28;19978;-43
2022/06/14 03:25:21;;;;;;;;;;;24.40;41.00;;;;;;4118065;28;20689;-44
2022/06/14 03:27:37;;;;;;;;;;;24.60;40.70;;;;;;4113496;28;20280;-47
2022/06/14 03:30:08;;;;;;;;;;;24.80;40.50;;;;;;4114318;28;19956;-45
2022/06/14 03:32:36;;;;;;;;;;;25.10;40.30;;;;;;4097316;28;20038;-44
2022/06/14 03:34:41;;;;;;;;;;;25.30;40.00;;;;;;4113682;28;19924;-48
2022/06/14 03:36:43;;;;;;;;;;;25.60;39.70;;;;;;4112473;28;21549;-48
2022/06/14 03:38:53;;;;;;;;;;;25.80;39.80;;;;;;4109054;28;19932;-43
2022/06/14 03:40:55;;;;;;;;;;;26.00;39.90;;;;;;4110425;28;20304;-43
2022/06/14 03:42:57;;;;;;;;;;;26.20;39.80;;;;;;4105982;28;19936;-43
2022/06/14 03:44:59;;;;;;;;;;;26.40;39.60;;;;;;4110850;28;19929;-44
2022/06/14 03:47:09;;;;;;;;;;;26.60;39.40;;;;;;4109050;28;20016;-48
2022/06/14 03:49:20;;;;;;;;;;;26.80;39.10;;;;;;4108068;28;20545;-45
2022/06/14 03:51:32;;;;;;;;;;;27.00;39.00;;;;;;4108028;28;20407;-45
2022/06/14 03:53:52;;;;;;;;;;;27.10;38.80;;;;;;4092393;28;19929;-48
2022/06/14 03:55:53;;;;;;;;;;;27.30;38.80;;;;;;4109115;28;20873;-46
2022/06/14 03:57:58;;;;;;;;;;;27.60;38.70;;;;;;4107853;28;20308;-44
2022/06/14 04:00:24;;;;;;;;;;;27.80;38.60;;;;;;4117590;28;20254;-45
2022/06/14 04:02:55;;;;;;;;;;;28.00;38.50;;;;;;4109696;28;19932;-46
2022/06/14 04:05:03;;;;;;;;;;;28.20;38.30;;;;;;4118028;28;20043;-47
2022/06/14 04:07:04;;;;;;;;;;;28.20;38.10;;;;;;4097070;28;20793;-43
2022/06/14 04:09:06;;;;;;;;;;;27.90;38.40;;;;;;4108025;28;19933;-43
2022/06/14 04:11:26;;;;;;;;;;;27.50;38.60;;;;;;4111335;28;20038;-43
2022/06/14 04:13:33;;;;;;;;;;;27.20;39.20;;;;;;4107542;28;20278;-45
2022/06/14 04:15:57;;;;;;;;;;;26.90;39.70;;;;;;4108803;28;20254;-44
2022/06/14 04:18:34;;;;;;;;;;;26.70;40.10;;;;;;4107869;28;19925;-42
2022/06/14 04:20:42;;;;;;;;;;;26.50;40.40;;;;;;4111362;28;19975;-43
2022/06/14 04:23:21;;;;;;;;;;;26.30;40.50;;;;;;4111777;28;19929;-45
2022/06/14 04:25:26;;;;;;;;;;;26.10;40.60;;;;;;4058092;28;19926;-44
2022/06/14 04:27:31;;;;;;;;;;;26.00;40.80;;;;;;4060091;28;20903;-44
2022/06/14 04:29:38;;;;;;;;;;;25.90;41.10;;;;;;4037456;29;20517;-44
2022/06/14 04:31:44;;;;;;;;;;;25.80;41.20;;;;;;4110093;28;20059;-43
2022/06/14 04:33:47;;;;;;;;;;;25.70;41.30;;;;;;4109325;28;20358;-42
2022/06/14 04:35:49;;;;;;;;;;;25.60;41.40;;;;;;4119564;28;20723;-42
2022/06/14 04:38:02;;;;;;;;;;;25.50;41.50;;;;;;4111182;28;19929;-43
2022/06/14 04:40:10;;;;;;;;;;;25.40;41.60;;;;;;4135072;28;19917;-43
2022/06/14 04:42:37;;;;;;;;;;;25.40;41.80;;;;;;4136384;28;20232;-44
2022/06/14 04:44:39;;;;;;;;;;;25.30;41.80;;;;;;4129789;28;19917;-41
2022/06/14 04:46:40;;;;;;;;;;;25.30;41.90;;;;;;4130443;28;21186;-42
2022/06/14 04:49:02;;;;;;;;;;;25.20;42.00;;;;;;4121739;28;20427;-44
2022/06/14 04:51:07;;;;;;;;;;;25.10;42.10;;;;;;4111426;28;20067;-50
2022/06/14 04:53:13;;;;;;;;;;;25.10;42.20;;;;;;4110498;28;19931;-46
2022/06/14 04:55:17;;;;;;;;;;;25.10;42.30;;;;;;4112586;28;19917;-46
2022/06/14 04:57:25;;;;;;;;;;;25.00;42.30;;;;;;4116397;28;19936;-45
2022/06/14 04:59:35;;;;;;;;;;;25.00;42.20;;;;;;4112732;28;20633;-46
2022/06/14 05:01:45;;;;;;;;;;;24.90;42.30;;;;;;4115914;28;20506;-48
2022/06/14 05:03:58;;;;;;;;;;;24.90;42.40;;;;;;4072782;28;20361;-42
2022/06/14 05:06:02;;;;;;;;;;;24.90;42.60;;;;;;4111161;28;19929;-45
2022/06/14 05:08:20;;;;;;;;;;;24.80;42.60;;;;;;4109556;28;19929;-44
2022/06/14 05:10:32;;;;;;;;;;;24.80;42.70;;;;;;4110606;28;21745;-43
2022/06/14 05:12:52;;;;;;;;;;;24.70;42.80;;;;;;4110123;28;19929;-46
2022/06/14 05:14:58;;;;;;;;;;;24.70;42.80;;;;;;4115570;28;20278;-45
2022/06/14 05:17:09;;;;;;;;;;;24.60;42.90;;;;;;4112074;28;20948;-45
2022/06/14 05:19:14;;;;;;;;;;;24.60;43.60;;;;;;4111489;28;20218;-45
2022/06/14 05:21:30;;;;;;;;;;;24.50;43.00;;;;;;4110650;28;19925;-47
2022/06/14 05:23:32;;;;;;;;;;;24.50;43.10;;;;;;4107926;28;19930;-43
2022/06/14 05:25:46;;;;;;;;;;;24.40;43.10;;;;;;4109281;28;20625;-47
2022/06/14 05:27:57;;;;;;;;;;;24.40;43.20;;;;;;4107267;28;20027;-42
2022/06/14 05:30:14;;;;;;;;;;;24.30;43.30;;;;;;4108632;28;20067;-44
2022/06/14 05:32:15;;;;;;;;;;;24.20;43.40;;;;;;4106040;28;19937;-45
2022/06/14 05:34:35;;;;;;;;;;;24.20;43.50;;;;;;4111959;28;19937;-44
2022/06/14 05:36:41;;;;;;;;;;;24.10;43.60;;;;;;4109171;28;19925;-42
2022/06/14 05:38:45;;;;;;;;;;;24.00;43.60;;;;;;4108229;28;19929;-43
2022/06/14 05:40:47;;;;;;;;;;;23.90;43.70;;;;;;4115750;28;19964;-45
2022/06/14 05:42:56;;;;;;;;;;;23.90;44.00;;;;;;4108709;28;19929;-44
2022/06/14 05:45:02;;;;;;;;;;;23.80;44.00;;;;;;4109709;28;19960;-48
2022/06/14 05:47:08;;;;;;;;;;;23.80;43.90;;;;;;4108917;28;20338;-51
2022/06/14 05:49:21;;;;;;;;;;;23.70;43.90;;;;;;4108575;28;19975;-47
2022/06/14 05:51:30;;;;;;;;;;;23.60;43.80;;;;;;4108150;28;20032;-48
2022/06/14 05:53:44;;;;;;;;;;;23.60;44.00;;;;;;4113139;28;19929;-41
2022/06/14 05:55:50;;;;;;;;;;;23.50;44.50;;;;;;4112843;28;19925;-43
2022/06/14 05:57:58;;;;;;;;;;;23.40;44.30;;;;;;4116885;28;19925;-51
2022/06/14 06:00:10;;;;;;;;;;;23.40;44.70;;;;;;4118946;28;19943;-46
2022/06/14 06:02:15;;;;;;;;;;;23.30;44.40;;;;;;4116747;28;20510;-52
2022/06/14 06:04:23;;;;;;;;;;;23.20;44.00;;;;;;4107206;28;19985;-47
2022/06/14 06:06:27;;;;;;;;;;;23.20;44.00;;;;;;4091112;28;20356;-44
2022/06/14 06:08:28;;;;;;;;;;;23.10;44.00;;;;;;4108075;28;19936;-46
2022/06/14 06:10:32;;;;;;;;;;;23.00;44.10;;;;;;4117667;28;20432;-44
2022/06/14 06:12:37;;;;;;;;;;;22.90;44.50;;;;;;4110788;28;19929;-46
2022/06/14 06:14:41;;;;;;;;;;;22.90;44.70;;;;;;4109301;28;19971;-48
2022/06/14 06:17:03;;;;;;;;;;;22.90;45.00;;;;;;4107898;28;20849;-46
2022/06/14 06:19:25;;;;;;;;;;;22.80;45.10;;;;;;4108432;28;19929;-47
2022/06/14 06:21:42;;;;;;;;;;;22.80;45.20;;;;;;4116051;28;19928;-44
2022/06/14 06:24:06;;;;;;;;;;;22.70;45.30;;;;;;4115345;28;20455;-48
2022/06/14 06:26:09;;;;;;;;;;;22.70;45.50;;;;;;4105335;28;20867;-45
2022/06/14 06:28:13;;;;;;;;;;;22.70;45.50;;;;;;4115812;28;20352;-49
2022/06/14 06:30:23;;;;;;;;;;;22.70;45.50;;;;;;4113703;28;21732;-49
2022/06/14 06:32:26;;;;;;;;;;;22.90;45.10;;;;;;4107244;28;19929;-49
2022/06/14 06:34:28;;;;;;;;;;;23.20;44.50;;;;;;4106567;28;19986;-49
2022/06/14 06:36:29;;;;;;;;;;;23.30;44.30;;;;;;4109577;28;19960;-51
2022/06/14 06:38:46;;;;;;;;;;;23.20;44.50;;;;;;4113466;28;19959;-48
2022/06/14 06:43:11;;;;;;;;;;;22.80;45.40;;;;;;4113846;28;19935;-45
2022/06/14 06:45:19;;;;;;;;;;;22.60;45.60;;;;;;4122912;28;19935;-47
2022/06/14 06:47:23;;;;;;;;;;;22.50;45.70;;;;;;4119359;28;19929;-52
2022/06/14 06:49:29;;;;;;;;;;;22.40;45.80;;;;;;4110750;28;19921;-49
2022/06/14 06:51:36;;;;;;;;;;;22.40;46.00;;;;;;4113102;28;19936;-50
2022/06/14 06:53:40;;;;;;;;;;;22.30;46.30;;;;;;4109209;28;19956;-48
2022/06/14 06:55:44;;;;;;;;;;;22.20;46.30;;;;;;4119924;28;19931;-49
2022/06/14 06:57:48;;;;;;;;;;;22.20;46.40;;;;;;4116178;28;20265;-48
2022/06/14 06:59:51;;;;;;;;;;;22.10;46.50;;;;;;4109649;28;19941;-50
2022/06/14 07:01:55;;;;;;;;;;;22.10;46.70;;;;;;4113564;28;20012;-49
2022/06/14 07:04:14;;;;;;;;;;;22.00;46.70;;;;;;4120304;28;20040;-48
2022/06/14 07:06:39;;;;;;;;;;;22.00;47.00;;;;;;4113989;28;19964;-47
2022/06/14 07:08:52;;;;;;;;;;;22.00;46.90;;;;;;4106746;28;19924;-49
2022/06/14 07:10:54;;;;;;;;;;;21.90;46.90;;;;;;4112872;28;20051;-47
2022/06/14 07:12:56;;;;;;;;;;;21.90;47.20;;;;;;4111098;28;20233;-50
2022/06/14 07:15:04;;;;;;;;;;;21.90;47.00;;;;;;4120147;28;19929;-45
2022/06/14 07:17:11;;;;;;;;;;;21.80;46.40;;;;;;4114587;28;19929;-46
2022/06/14 07:19:12;;;;;;;;;;;21.80;46.20;;;;;;4111671;28;20177;-47
2022/06/14 07:21:19;;;;;;;;;;;21.70;46.40;;;;;;4111058;28;19939;-49
2022/06/14 07:23:23;;;;;;;;;;;21.60;46.60;;;;;;4112526;28;19929;-50
2022/06/14 07:25:27;;;;;;;;;;;21.60;46.80;;;;;;4119502;28;19968;-51
2022/06/14 07:27:32;;;;;;;;;;;21.60;47.30;;;;;;4113996;28;20056;-49
2022/06/14 07:29:36;;;;;;;;;;;21.50;47.60;;;;;;4110705;28;20255;-51
2022/06/14 07:31:58;;;;;;;;;;;21.50;49.00;;;;;;4112319;28;19932;-51
2022/06/14 07:34:00;;;;;;;;;;;21.50;50.70;;;;;;4108520;28;19929;-52
2022/06/14 07:36:03;;;;;;;;;;;21.40;49.90;;;;;;4112793;28;19925;-50
2022/06/14 07:38:14;;;;;;;;;;;21.50;50.00;;;;;;4117887;28;19929;-51
2022/06/14 07:40:15;;;;;;;;;;;21.40;50.00;;;;;;4107231;28;20029;-48
2022/06/14 07:42:23;;;;;;;;;;;21.40;50.20;;;;;;4097071;28;19933;-47
2022/06/14 07:44:43;;;;;;;;;;;21.40;50.20;;;;;;4098196;28;20062;-45
2022/06/14 07:46:53;;;;;;;;;;;21.40;50.10;;;;;;4099590;28;20487;-49
2022/06/14 07:49:01;;;;;;;;;;;21.40;49.80;;;;;;4097113;28;19929;-49
2022/06/14 07:51:06;;;;;;;;;;;21.40;49.50;;;;;;4105478;28;19928;-49
2022/06/14 07:53:19;;;;;;;;;;;21.30;49.10;;;;;;4103971;28;19936;-52
2022/06/14 07:55:20;;;;;;;;;;;21.30;49.00;;;;;;4104305;28;20065;-50
2022/06/14 07:57:26;;;;;;;;;;;21.20;48.80;;;;;;4103520;28;20039;-48
2022/06/14 07:59:30;;;;;;;;;;;21.20;48.80;;;;;;4106875;28;20679;-50
2022/06/14 08:01:50;;;;;;;;;;;21.20;48.80;;;;;;4103339;28;20190;-53
2022/06/14 08:04:00;;;;;;;;;;;21.10;48.80;;;;;;4108579;28;19940;-52
2022/06/14 08:06:03;;;;;;;;;;;21.10;49.30;;;;;;4103549;28;21142;-52
2022/06/14 08:08:06;;;;;;;;;;;21.10;49.60;;;;;;4104578;28;19931;-50
2022/06/14 08:10:19;;;;;;;;;;;21.10;49.50;;;;;;4103306;28;19929;-48
2022/06/14 08:12:44;;;;;;;;;;;21.00;49.20;;;;;;4101005;28;19936;-54
2022/06/14 08:14:57;;;;;;;;;;;21.00;49.20;;;;;;4073985;28;19929;-49
2022/06/14 08:17:00;;;;;;;;;;;21.00;49.00;;;;;;4093216;28;19996;-51
2022/06/14 08:19:05;;;;;;;;;;;20.90;48.90;;;;;;4090424;28;19929;-46
2022/06/14 08:21:09;;;;;;;;;;;20.90;48.90;;;;;;4103463;28;19963;-46
2022/06/14 08:23:20;;;;;;;;;;;20.80;49.00;;;;;;4108061;28;19929;-45
2022/06/14 08:25:24;;;;;;;;;;;20.80;49.00;;;;;;4102997;28;19928;-47
2022/06/14 08:27:49;;;;;;;;;;;20.80;49.10;;;;;;4095925;28;20455;-43
2022/06/14 08:30:00;;;;;;;;;;;20.80;49.20;;;;;;4070184;28;20666;-47
2022/06/14 08:32:06;;;;;;;;;;;20.70;49.20;;;;;;4105256;28;20990;-46
2022/06/14 08:34:08;;;;;;;;;;;20.70;49.20;;;;;;4099429;28;20601;-47
2022/06/14 08:36:12;;;;;;;;;;;20.60;49.20;;;;;;4093933;28;20002;-43
2022/06/14 08:38:24;;;;;;;;;;;20.60;49.20;;;;;;4095099;28;19921;-44
2022/06/14 08:40:26;;;;;;;;;;;20.50;49.30;;;;;;4098986;28;20801;-45
2022/06/14 08:42:53;;;;;;;;;;;20.50;49.20;;;;;;4116760;28;20047;-43
2022/06/14 08:44:58;;;;;;;;;;;20.50;49.20;;;;;;4092407;28;20484;-48
2022/06/14 08:47:18;;;;;;;;;;;20.40;49.30;;;;;;4102452;28;19932;-45
2022/06/14 08:49:22;;;;;;;;;;;20.40;49.90;;;;;;4095854;28;20082;-47
2022/06/14 08:51:34;;;;;;;;;;;20.40;49.40;;;;;;4102308;28;19968;-46
2022/06/14 08:53:54;;;;;;;;;;;20.40;49.40;;;;;;4100035;28;19925;-46
2022/06/14 08:56:19;;;;;;;;;;;20.30;49.40;;;;;;4094731;28;19932;-40
2022/06/14 08:58:21;;;;;;;;;;;20.30;49.50;;;;;;4094571;28;20566;-42
2022/06/14 09:00:23;;;;;;;;;;;20.20;49.60;;;;;;4098835;28;19929;-42
2022/06/14 09:02:43;;;;;;;;;;;20.30;49.80;;;;;;4103668;28;19925;-44
2022/06/14 09:04:58;;;;;;;;;;;20.30;49.80;;;;;;4097670;28;19929;-41
2022/06/14 09:06:59;;;;;;;;;;;20.20;49.70;;;;;;4096497;28;20019;-40
2022/06/14 09:09:01;;;;;;;;;;;20.20;49.70;;;;;;4103580;28;19932;-45
2022/06/14 09:11:08;;;;;;;;;;;20.20;49.70;;;;;;4103987;28;21199;-42
2022/06/14 09:13:22;;;;;;;;;;;20.20;49.90;;;;;;4099818;28;20955;-42
2022/06/14 09:15:26;;;;;;;;;;;20.10;49.90;;;;;;4102850;28;21478;-47
2022/06/14 09:17:28;;;;;;;;;;;20.10;50.00;;;;;;4099453;28;19930;-45
2022/06/14 09:20:03;;;;;;;;;;;20.10;50.20;;;;;;4135981;28;20132;-43
2022/06/14 09:28:43;;;;;;;;;;;20.10;50.70;;;;;;4145529;28;19946;-47
2022/06/14 09:31:24;;;;;;;;;;;20.10;51.60;;;;;;4149148;28;19929;-42
2022/06/14 09:33:31;;;;;;;;;;;20.10;51.10;;;;;;4111666;28;20333;-49
2022/06/14 09:35:51;;;;;;;;;;;20.10;51.00;;;;;;4100253;28;20002;-45
2022/06/14 09:38:13;;;;;;;;;;;20.00;51.00;;;;;;4101125;28;20181;-52
2022/06/14 09:40:15;;;;;;;;;;;20.00;51.30;;;;;;4110624;28;21088;-46
2022/06/14 09:42:25;;;;;;;;;;;20.00;51.30;;;;;;4110326;28;19990;-46
2022/06/14 09:44:43;;;;;;;;;;;20.00;51.20;;;;;;4103211;28;20850;-44
2022/06/14 09:46:55;;;;;;;;;;;20.00;51.20;;;;;;4109986;28;20274;-42
2022/06/14 09:49:21;;;;;;;;;;;20.00;50.90;;;;;;4107170;28;19935;-46
2022/06/14 09:51:41;;;;;;;;;;;20.00;51.10;;;;;;4112515;28;20012;-43
2022/06/14 09:53:43;;;;;;;;;;;20.00;51.40;;;;;;4101916;28;20368;-46
2022/06/14 09:55:44;;;;;;;;;;;19.90;51.40;;;;;;4108131;28;19933;-45
2022/06/14 09:57:49;;;;;;;;;;;19.90;51.50;;;;;;4099369;28;20303;-48
2022/06/14 09:59:56;;;;;;;;;;;19.90;51.40;;;;;;4097650;28;20431;-47
2022/06/14 10:02:14;;;;;;;;;;;19.90;51.70;;;;;;4099430;28;19936;-47
2022/06/14 10:04:22;;;;;;;;;;;19.90;51.90;;;;;;4098340;28;20017;-44
2022/06/14 10:06:42;;;;;;;;;;;19.90;51.80;;;;;;4096664;28;19933;-46
2022/06/14 10:08:50;;;;;;;;;;;19.80;51.70;;;;;;4097977;28;19929;-46
2022/06/14 10:10:54;;;;;;;;;;;19.80;51.80;;;;;;4099769;28;20441;-46
2022/06/14 10:13:14;;;;;;;;;;;19.80;51.80;;;;;;4097543;28;20110;-43
2022/06/14 10:15:21;;;;;;;;;;;19.80;52.00;;;;;;4101165;28;19925;-43
2022/06/14 10:17:29;;;;;;;;;;;19.80;51.80;;;;;;4097840;28;19929;-48
2022/06/14 10:19:36;;;;;;;;;;;19.80;52.00;;;;;;4103905;28;20019;-44
2022/06/14 10:21:51;;;;;;;;;;;19.80;52.10;;;;;;4104518;28;19932;-52
2022/06/14 10:23:59;;;;;;;;;;;19.80;52.00;;;;;;4106680;28;19932;-41
2022/06/14 10:28:29;;;;;;;;;;;19.80;51.60;;;;;;4101266;28;19940;-44
2022/06/14 10:30:37;;;;;;;;;;;19.70;51.60;;;;;;4103974;28;19925;-44
2022/06/14 10:32:41;;;;;;;;;;;19.70;51.90;;;;;;4104590;28;19965;-43
2022/06/14 10:34:49;;;;;;;;;;;19.70;52.00;;;;;;4101322;28;19929;-49
2022/06/14 10:37:09;;;;;;;;;;;19.70;52.00;;;;;;4098449;28;20393;-45
2022/06/14 10:39:24;;;;;;;;;;;19.70;52.10;;;;;;4098602;28;19933;-47
2022/06/14 10:41:30;;;;;;;;;;;19.70;52.30;;;;;;4107672;28;20629;-42
2022/06/14 10:43:31;;;;;;;;;;;19.70;52.20;;;;;;4099885;28;20619;-47
2022/06/14 10:45:54;;;;;;;;;;;19.70;52.20;;;;;;4098346;28;20055;-41
2022/06/14 10:48:11;;;;;;;;;;;19.70;52.20;;;;;;4102255;28;20524;-46
2022/06/14 10:50:12;;;;;;;;;;;19.70;52.20;;;;;;4105306;28;20055;-44
2022/06/14 10:52:14;;;;;;;;;;;19.60;52.10;;;;;;4097451;28;20354;-51
2022/06/14 10:54:24;;;;;;;;;;;19.60;52.10;;;;;;4099273;28;19939;-41
2022/06/14 10:56:34;;;;;;;;;;;19.60;51.60;;;;;;4102601;28;19925;-43
2022/06/14 10:58:36;;;;;;;;;;;19.60;51.70;;;;;;4100531;28;19925;-43
2022/06/14 11:00:55;;;;;;;;;;;19.50;51.80;;;;;;4103393;28;20304;-43
2022/06/14 11:02:59;;;;;;;;;;;19.50;51.80;;;;;;4109719;28;20552;-43
2022/06/14 11:05:18;;;;;;;;;;;19.50;52.00;;;;;;4102570;28;20317;-42
2022/06/14 11:07:28;;;;;;;;;;;19.50;52.10;;;;;;4109493;28;20396;-44
2022/06/14 11:09:45;;;;;;;;;;;19.50;52.20;;;;;;4106439;28;20451;-46
2022/06/14 11:11:47;;;;;;;;;;;19.50;52.50;;;;;;4110722;28;20249;-43
2022/06/14 11:14:01;;;;;;;;;;;19.50;52.10;;;;;;4101453;28;21257;-46
2022/06/14 11:16:07;;;;;;;;;;;19.50;52.40;;;;;;4106345;28;21047;-49
2022/06/14 11:18:11;;;;;;;;;;;19.40;52.30;;;;;;4102745;28;19952;-43
2022/06/14 11:20:16;;;;;;;;;;;19.40;52.30;;;;;;4101271;28;19960;-47
2022/06/14 11:22:23;;;;;;;;;;;19.40;52.50;;;;;;4105399;28;19936;-43
2022/06/14 11:24:34;;;;;;;;;;;19.40;52.50;;;;;;4113784;28;20129;-45
2022/06/14 11:26:53;;;;;;;;;;;19.40;53.20;;;;;;4114474;28;19925;-43
2022/06/14 11:28:59;;;;;;;;;;;19.40;52.70;;;;;;4107997;28;19925;-42
2022/06/14 11:31:05;;;;;;;;;;;19.40;52.90;;;;;;4110211;28;19928;-49
2022/06/14 11:33:07;;;;;;;;;;;19.40;52.90;;;;;;4111515;28;19976;-43
2022/06/14 11:35:27;;;;;;;;;;;19.40;52.90;;;;;;4105048;28;20415;-46
2022/06/14 11:37:29;;;;;;;;;;;19.40;52.80;;;;;;4105648;28;19968;-41
2022/06/14 11:39:51;;;;;;;;;;;19.30;53.00;;;;;;4103280;28;20041;-45
2022/06/14 11:41:52;;;;;;;;;;;19.30;53.10;;;;;;4096395;28;20310;-43
2022/06/14 11:44:00;;;;;;;;;;;19.30;53.00;;;;;;4101436;28;19975;-43
2022/06/14 11:46:20;;;;;;;;;;;19.30;53.10;;;;;;4106164;28;19944;-54
2022/06/14 11:48:40;;;;;;;;;;;19.30;53.10;;;;;;4105907;28;19930;-51
2022/06/14 11:50:42;;;;;;;;;;;19.30;51.90;;;;;;4105991;28;20612;-49
2022/06/14 11:53:18;;;;;;;;;;;19.20;51.70;;;;;;4102218;28;20007;-45
2022/06/14 11:55:55;;;;;;;;;;;19.20;51.80;;;;;;4083264;28;19929;-48
2022/06/14 11:58:09;;;;;;;;;;;19.10;52.60;;;;;;4037746;29;19974;-44
2022/06/14 12:00:25;;;;;;;;;;;19.10;52.90;;;;;;4094831;28;20436;-50
2022/06/14 12:02:38;;;;;;;;;;;19.10;53.50;;;;;;4111889;28;19935;-47
2022/06/14 12:04:40;;;;;;;;;;;19.10;53.30;;;;;;4110682;28;19994;-52
2022/06/14 12:06:48;;;;;;;;;;;19.10;53.50;;;;;;4104778;28;21856;-46
2022/06/14 12:08:49;;;;;;;;;;;19.10;53.00;;;;;;4106129;28;19998;-47
2022/06/14 12:10:53;;;;;;;;;;;19.00;52.90;;;;;;4104771;28;20333;-46
2022/06/14 12:13:13;;;;;;;;;;;19.00;53.00;;;;;;4112380;28;20482;-49
2022/06/14 12:15:17;;;;;;;;;;;18.90;53.00;;;;;;4102286;28;20014;-46
2022/06/14 12:17:27;;;;;;;;;;;18.90;53.00;;;;;;4110265;28;19928;-45
2022/06/14 12:19:33;;;;;;;;;;;18.90;53.00;;;;;;4108670;28;20425;-43
2022/06/14 12:21:38;;;;;;;;;;;18.80;53.00;;;;;;4105814;28;20007;-47
2022/06/14 12:24:00;;;;;;;;;;;18.80;53.80;;;;;;4098988;28;19925;-45
2022/06/14 12:28:30;;;;;;;;;;;18.80;53.50;;;;;;4110102;28;20329;-46
2022/06/14 12:30:33;;;;;;;;;;;18.70;53.60;;;;;;4106457;28;19924;-46
2022/06/14 12:32:39;;;;;;;;;;;18.70;53.60;;;;;;4102706;28;20367;-42
2022/06/14 12:34:49;;;;;;;;;;;18.70;53.60;;;;;;4099747;28;19944;-43
2022/06/14 12:37:05;;;;;;;;;;;18.70;53.70;;;;;;4115137;28;19925;-47
2022/06/14 12:39:13;;;;;;;;;;;18.60;53.80;;;;;;4100275;28;19932;-45
2022/06/14 12:41:24;;;;;;;;;;;18.60;53.80;;;;;;4100814;28;19940;-42
2022/06/14 12:43:30;;;;;;;;;;;18.60;54.00;;;;;;4097816;28;20032;-42
2022/06/14 12:45:38;;;;;;;;;;;18.60;54.10;;;;;;4100517;28;20331;-43
2022/06/14 12:47:45;;;;;;;;;;;18.50;54.20;;;;;;4103224;28;19978;-42
2022/06/14 12:49:49;;;;;;;;;;;18.50;54.20;;;;;;4107962;28;19929;-43